Time;durP1;ratioP1;P1;durP2;ratioP2;P2;SDS_P1;SDS_P2;PMS_P1;PMS_P2;Temp;Humidity;BMP_temperature;BMP_pressure;BME280_temperature;BME280_humidity;BME280_pressure;Samples;Min_cycle;Max_cycle;Signal;HPM_P1;HPM_P2
2022/11/19 00:04:50;;;;;;;30.85;28.10;;;;;;;;;;10194496;28;20038;-65
2022/11/19 00:09:46;;;;;;;30.45;28.17;;;;;;;;;;10193504;28;20054;-66
2022/11/19 00:14:43;;;;;;;30.52;28.15;;;;;;;;;;10195241;28;20065;-66
2022/11/19 00:19:39;;;;;;;29.63;27.30;;;;;;;;;;10193551;28;20128;-65
2022/11/19 00:24:35;;;;;;;30.60;28.10;;;;;;;;;;10193472;28;20042;-65
2022/11/19 00:29:31;;;;;;;30.67;28.27;;;;;;;;;;10193966;28;20443;-65
2022/11/19 00:34:28;;;;;;;32.17;29.73;;;;;;;;;;10193034;28;20057;-66
2022/11/19 00:39:24;;;;;;;30.15;28.05;;;;;;;;;;10192331;28;20046;-65
2022/11/19 00:44:20;;;;;;;32.67;30.50;;;;;;;;;;10192443;28;20527;-66
2022/11/19 00:49:17;;;;;;;30.52;28.33;;;;;;;;;;10193056;28;20570;-66
2022/11/19 00:54:13;;;;;;;33.45;30.85;;;;;;;;;;10192373;28;20056;-65
2022/11/19 00:59:10;;;;;;;32.70;30.20;;;;;;;;;;10192867;28;20038;-65
2022/11/19 01:04:06;;;;;;;33.25;30.63;;;;;;;;;;10192151;28;20044;-66
2022/11/19 01:09:02;;;;;;;33.00;30.60;;;;;;;;;;10190470;28;20052;-65
2022/11/19 01:14:00;;;;;;;33.10;30.33;;;;;;;;;;10184618;28;20046;-65
2022/11/19 01:18:57;;;;;;;33.65;31.05;;;;;;;;;;10191674;28;20535;-65
2022/11/19 01:23:53;;;;;;;34.72;31.92;;;;;;;;;;10190247;28;20146;-65
2022/11/19 01:28:49;;;;;;;36.17;33.35;;;;;;;;;;10189810;28;20046;-65
2022/11/19 01:33:46;;;;;;;33.78;31.33;;;;;;;;;;10190777;28;20515;-65
2022/11/19 01:38:43;;;;;;;35.97;33.28;;;;;;;;;;10191445;28;20078;-64
2022/11/19 01:43:45;;;;;;;34.58;31.65;;;;;;;;;;10189700;28;20417;-65
2022/11/19 01:48:53;;;;;;;37.13;34.13;;;;;;;;;;10187520;28;20056;-65
2022/11/19 01:53:50;;;;;;;32.67;30.23;;;;;;;;;;10189539;28;20046;-64
2022/11/19 01:58:48;;;;;;;34.83;31.98;;;;;;;;;;10191363;28;20057;-64
2022/11/19 02:03:45;;;;;;;34.72;31.98;;;;;;;;;;10190807;28;20046;-64
2022/11/19 02:08:45;;;;;;;36.47;33.67;;;;;;;;;;10197783;28;20053;-64
2022/11/19 02:13:49;;;;;;;37.50;34.78;;;;;;;;;;10197977;28;20046;-65
2022/11/19 02:19:04;;;;;;;35.65;33.05;;;;;;;;;;10196830;28;20462;-65
2022/11/19 02:24:26;;;;;;;36.38;33.45;;;;;;;;;;10197987;28;20468;-65
2022/11/19 02:29:29;;;;;;;36.67;33.80;;;;;;;;;;10193346;28;20041;-64
2022/11/19 02:34:31;;;;;;;36.85;34.05;;;;;;;;;;10197939;28;20520;-65
2022/11/19 02:39:29;;;;;;;;;;;;;;;;;;10195981;28;20535;-64
2022/11/19 02:49:49;;;;;;;35.88;32.67;;;;;;;;;;10191699;28;20046;-64
2022/11/19 02:54:46;;;;;;;33.70;31.20;;;;;;;;;;10194581;28;20518;-64
2022/11/19 03:05:02;;;;;;;34.25;31.85;;;;;;;;;;10197182;28;20141;-64
2022/11/19 03:10:00;;;;;;;34.85;32.40;;;;;;;;;;10195704;28;20468;-64
2022/11/19 03:20:22;;;;;;;35.97;33.33;;;;;;;;;;10191026;28;20045;-64
2022/11/19 03:25:24;;;;;;;34.15;31.75;;;;;;;;;;10192701;28;20056;-64
2022/11/19 03:30:20;;;;;;;35.60;33.05;;;;;;;;;;10195275;28;20521;-64
2022/11/19 03:35:21;;;;;;;36.22;33.50;;;;;;;;;;10194557;28;20042;-64
2022/11/19 03:40:18;;;;;;;35.72;33.33;;;;;;;;;;10192221;28;20145;-64
2022/11/19 03:45:18;;;;;;;35.70;33.15;;;;;;;;;;10195981;28;20050;-65
2022/11/19 03:50:14;;;;;;;35.75;33.28;;;;;;;;;;10196192;28;20045;-65
2022/11/19 03:55:10;;;;;;;36.78;34.08;;;;;;;;;;10194590;28;20125;-65
2022/11/19 04:00:07;;;;;;;35.53;32.88;;;;;;;;;;10189680;28;20052;-65
2022/11/19 04:05:03;;;;;;;35.45;32.92;;;;;;;;;;10193328;28;20487;-65
2022/11/19 04:09:59;;;;;;;37.13;34.25;;;;;;;;;;10193660;28;20506;-64
2022/11/19 04:14:55;;;;;;;37.72;35.03;;;;;;;;;;10191962;28;20046;-65
2022/11/19 04:19:52;;;;;;;36.88;34.28;;;;;;;;;;10193154;28;20136;-64
2022/11/19 04:24:48;;;;;;;36.90;34.33;;;;;;;;;;10193422;28;20061;-65
2022/11/19 04:29:44;;;;;;;37.83;35.15;;;;;;;;;;10193498;28;20057;-64
2022/11/19 04:34:40;;;;;;;37.22;34.55;;;;;;;;;;10194384;28;20124;-65
2022/11/19 04:39:37;;;;;;;36.22;33.60;;;;;;;;;;10192841;28;20122;-64
2022/11/19 04:44:33;;;;;;;37.13;34.20;;;;;;;;;;10193832;28;20046;-64
2022/11/19 04:49:29;;;;;;;38.10;35.33;;;;;;;;;;10192597;28;20415;-64
2022/11/19 04:54:25;;;;;;;38.85;36.08;;;;;;;;;;10185860;28;20039;-65
2022/11/19 04:59:21;;;;;;;38.00;35.20;;;;;;;;;;10192642;28;20042;-64
2022/11/19 05:04:18;;;;;;;37.50;34.90;;;;;;;;;;10192640;28;20096;-65
2022/11/19 05:09:14;;;;;;;35.42;33.10;;;;;;;;;;10191615;28;20069;-64
2022/11/19 05:14:10;;;;;;;39.00;36.28;;;;;;;;;;10191696;28;20038;-64
2022/11/19 05:19:07;;;;;;;37.40;34.83;;;;;;;;;;10191839;28;20092;-64
2022/11/19 05:24:03;;;;;;;37.45;34.78;;;;;;;;;;10191719;28;20145;-65
2022/11/19 05:28:59;;;;;;;40.55;37.65;;;;;;;;;;10192280;28;20056;-65
2022/11/19 05:33:55;;;;;;;40.30;37.22;;;;;;;;;;10190865;28;20427;-65
2022/11/19 05:38:52;;;;;;;40.15;37.53;;;;;;;;;;10189954;28;20045;-64
2022/11/19 05:43:48;;;;;;;43.25;40.40;;;;;;;;;;10191946;28;20050;-64
2022/11/19 05:48:44;;;;;;;44.95;41.75;;;;;;;;;;10190656;28;20056;-64
2022/11/19 05:53:41;;;;;;;46.92;43.35;;;;;;;;;;10191958;28;20053;-64
2022/11/19 05:58:37;;;;;;;44.25;41.33;;;;;;;;;;10190728;28;20046;-65
2022/11/19 06:03:33;;;;;;;44.95;41.88;;;;;;;;;;10191377;28;20052;-65
2022/11/19 06:08:29;;;;;;;44.10;41.10;;;;;;;;;;10188406;28;20068;-65
2022/11/19 06:13:25;;;;;;;41.17;37.95;;;;;;;;;;10185738;28;20420;-64
2022/11/19 06:18:22;;;;;;;41.45;38.40;;;;;;;;;;10190613;28;20760;-65
2022/11/19 06:23:18;;;;;;;42.65;39.83;;;;;;;;;;10190463;28;20061;-64
2022/11/19 06:28:14;;;;;;;43.10;40.20;;;;;;;;;;10190781;28;20056;-64
2022/11/19 06:33:10;;;;;;;44.33;41.30;;;;;;;;;;10190385;28;20065;-65
2022/11/19 06:38:07;;;;;;;41.83;38.95;;;;;;;;;;10190432;28;20057;-64
2022/11/19 06:43:03;;;;;;;38.25;35.65;;;;;;;;;;10190259;28;20053;-64
2022/11/19 06:48:00;;;;;;;37.20;34.75;;;;;;;;;;10190397;28;20049;-65
2022/11/19 06:52:56;;;;;;;33.83;31.40;;;;;;;;;;10197521;28;20407;-65
2022/11/19 06:57:52;;;;;;;33.30;30.85;;;;;;;;;;10196004;28;20621;-65
2022/11/19 07:02:48;;;;;;;34.35;31.85;;;;;;;;;;10193208;28;20137;-65
2022/11/19 07:07:45;;;;;;;35.38;32.83;;;;;;;;;;10196788;28;20050;-65
2022/11/19 07:12:41;;;;;;;36.90;34.10;;;;;;;;;;10197218;28;20133;-65
2022/11/19 07:17:37;;;;;;;35.17;32.78;;;;;;;;;;10196838;28;20046;-65
2022/11/19 07:22:33;;;;;;;34.83;32.42;;;;;;;;;;10190433;28;20050;-64
2022/11/19 07:27:29;;;;;;;37.85;35.25;;;;;;;;;;10190667;28;20576;-64
2022/11/19 07:32:26;;;;;;;38.35;35.53;;;;;;;;;;10196506;28;20043;-64
2022/11/19 07:37:22;;;;;;;40.53;37.92;;;;;;;;;;10196499;28;20820;-65
2022/11/19 07:47:34;;;;;;;40.13;37.53;;;;;;;;;;10195173;28;20045;-64
2022/11/19 07:52:30;;;;;;;40.08;37.47;;;;;;;;;;10195523;28;20389;-65
2022/11/19 07:57:26;;;;;;;37.50;34.90;;;;;;;;;;10192870;28;20041;-66
2022/11/19 08:02:25;;;;;;;39.70;37.03;;;;;;;;;;10194948;28;20045;-65
2022/11/19 08:07:22;;;;;;;35.85;33.28;;;;;;;;;;10193745;28;20048;-65
2022/11/19 08:12:18;;;;;;;42.72;39.72;;;;;;;;;;10194417;28;20194;-64
2022/11/19 08:22:29;;;;;;;33.30;30.77;;;;;;;;;;10191590;28;20057;-65
2022/11/19 08:27:25;;;;;;;32.15;29.85;;;;;;;;;;10194512;28;20050;-65
2022/11/19 08:32:22;;;;;;;29.42;27.42;;;;;;;;;;10193738;28;20072;-65
2022/11/19 08:37:18;;;;;;;29.55;27.45;;;;;;;;;;10192833;28;20048;-65
2022/11/19 08:47:29;;;;;;;27.05;25.08;;;;;;;;;;10192457;28;20046;-65
2022/11/19 08:52:25;;;;;;;27.30;25.13;;;;;;;;;;10192705;28;20056;-65
2022/11/19 08:57:22;;;;;;;27.77;25.77;;;;;;;;;;10193183;28;20133;-65
2022/11/19 09:02:18;;;;;;;27.55;25.55;;;;;;;;;;10193237;28;20113;-65
2022/11/19 09:07:14;;;;;;;28.17;26.15;;;;;;;;;;10190613;28;20053;-65
2022/11/19 09:12:10;;;;;;;27.13;25.27;;;;;;;;;;10191041;28;20057;-64
2022/11/19 09:17:07;;;;;;;29.63;27.30;;;;;;;;;;10187680;28;20041;-65
2022/11/19 09:22:03;;;;;;;27.52;25.63;;;;;;;;;;10192161;28;20049;-65
2022/11/19 09:27:00;;;;;;;29.58;27.48;;;;;;;;;;10192218;28;20054;-65
2022/11/19 09:31:57;;;;;;;30.15;28.05;;;;;;;;;;10191520;28;20566;-65
2022/11/19 09:36:54;;;;;;;30.45;28.30;;;;;;;;;;10191476;28;20037;-65
2022/11/19 09:41:53;;;;;;;29.52;27.58;;;;;;;;;;10190860;28;20134;-65
2022/11/19 09:47:00;;;;;;;30.90;28.75;;;;;;;;;;10190644;28;20060;-65
2022/11/19 09:52:00;;;;;;;32.72;30.48;;;;;;;;;;10185364;28;20041;-65
2022/11/19 09:56:58;;;;;;;34.55;32.28;;;;;;;;;;10190960;28;20041;-65
2022/11/19 10:01:59;;;;;;;35.00;32.67;;;;;;;;;;10191306;28;20049;-65
2022/11/19 10:06:55;;;;;;;39.95;37.17;;;;;;;;;;10190055;28;20056;-65
2022/11/19 10:11:54;;;;;;;39.88;37.45;;;;;;;;;;10190708;28;20388;-65
2022/11/19 10:16:56;;;;;;;41.55;38.80;;;;;;;;;;10191165;28;20132;-65
2022/11/19 10:21:57;;;;;;;39.20;36.60;;;;;;;;;;10190641;28;20455;-61
2022/11/19 10:27:01;;;;;;;38.25;35.67;;;;;;;;;;10195588;28;20045;-65
2022/11/19 10:32:20;;;;;;;36.58;33.97;;;;;;;;;;10197923;28;20049;-65
2022/11/19 10:37:19;;;;;;;32.72;30.60;;;;;;;;;;10198328;28;20478;-65
2022/11/19 10:42:23;;;;;;;30.75;28.75;;;;;;;;;;10198300;28;20042;-65
2022/11/19 10:47:31;;;;;;;25.38;23.75;;;;;;;;;;10194309;28;20518;-65
2022/11/19 10:52:33;;;;;;;25.27;23.45;;;;;;;;;;10198064;28;20195;-65
2022/11/19 10:57:31;;;;;;;24.20;22.55;;;;;;;;;;10196481;28;20164;-65
2022/11/19 11:02:27;;;;;;;22.73;20.92;;;;;;;;;;10195630;28;20057;-65
2022/11/19 11:07:43;;;;;;;24.27;22.48;;;;;;;;;;10193620;28;20042;-65
2022/11/19 11:18:04;;;;;;;24.17;22.55;;;;;;;;;;10195639;28;20144;-65
2022/11/19 11:23:17;;;;;;;23.92;22.33;;;;;;;;;;10194108;28;20049;-65
2022/11/19 11:28:15;;;;;;;22.23;20.73;;;;;;;;;;10196143;28;20273;-65
2022/11/19 11:33:23;;;;;;;23.92;22.25;;;;;;;;;;10192414;28;20038;-65
2022/11/19 11:38:21;;;;;;;22.20;20.70;;;;;;;;;;10192609;28;20048;-65
2022/11/19 11:43:17;;;;;;;20.58;19.08;;;;;;;;;;10196453;28;20495;-65
2022/11/19 11:48:17;;;;;;;20.15;18.67;;;;;;;;;;10194919;28;20042;-65
2022/11/19 11:53:14;;;;;;;18.83;17.50;;;;;;;;;;10193227;28;20041;-65
2022/11/19 11:58:25;;;;;;;16.50;15.25;;;;;;;;;;10194591;28;20045;-65
2022/11/19 12:03:22;;;;;;;18.73;17.05;;;;;;;;;;10189613;28;20058;-65
2022/11/19 12:08:37;;;;;;;16.00;14.90;;;;;;;;;;10192582;28;20044;-65
2022/11/19 12:13:36;;;;;;;13.80;12.80;;;;;;;;;;10195002;28;20070;-65
2022/11/19 12:18:42;;;;;;;14.32;13.07;;;;;;;;;;10192844;28;20420;-64
2022/11/19 12:23:57;;;;;;;11.65;10.90;;;;;;;;;;10194601;28;20053;-65
2022/11/19 12:28:56;;;;;;;10.95;10.00;;;;;;;;;;10191299;28;20549;-65
2022/11/19 12:34:11;;;;;;;10.75;9.95;;;;;;;;;;10190964;28;20043;-66
2022/11/19 12:39:28;;;;;;;10.13;9.13;;;;;;;;;;10194219;28;20125;-65
2022/11/19 12:44:28;;;;;;;9.10;8.35;;;;;;;;;;10192178;28;20450;-65
2022/11/19 12:49:36;;;;;;;9.07;8.27;;;;;;;;;;10193062;28;20050;-65
2022/11/19 12:54:45;;;;;;;8.32;7.50;;;;;;;;;;10192145;28;20604;-65
2022/11/19 12:59:47;;;;;;;9.52;8.57;;;;;;;;;;10188581;28;20052;-64
2022/11/19 13:04:46;;;;;;;10.48;9.57;;;;;;;;;;10187948;28;20418;-67
2022/11/19 13:09:46;;;;;;;9.80;8.90;;;;;;;;;;10189604;28;20041;-66
2022/11/19 13:14:47;;;;;;;10.35;9.45;;;;;;;;;;10192759;28;20042;-66
2022/11/19 13:19:55;;;;;;;9.57;8.77;;;;;;;;;;10188542;28;20077;-66
2022/11/19 13:24:53;;;;;;;9.53;8.77;;;;;;;;;;10192182;28;20060;-66
2022/11/19 13:29:53;;;;;;;10.00;9.10;;;;;;;;;;10188813;28;20504;-66
2022/11/19 13:35:13;;;;;;;9.75;8.77;;;;;;;;;;10191735;28;20419;-66
2022/11/19 13:40:21;;;;;;;11.82;9.93;;;;;;;;;;10183034;28;20421;-66
2022/11/19 13:45:18;;;;;;;11.23;9.15;;;;;;;;;;10187838;28;20412;-66
2022/11/19 13:50:14;;;;;;;9.00;8.30;;;;;;;;;;10191200;28;20125;-66
2022/11/19 13:55:29;;;;;;;9.70;8.88;;;;;;;;;;10191024;28;20042;-66
2022/11/19 14:00:26;;;;;;;8.93;8.20;;;;;;;;;;10199490;28;20125;-66
2022/11/19 14:05:47;;;;;;;8.90;8.10;;;;;;;;;;10202812;28;20038;-66
2022/11/19 14:11:01;;;;;;;9.10;7.97;;;;;;;;;;10202389;28;20053;-65
2022/11/19 14:26:46;;;;;;;9.43;8.63;;;;;;;;;;10200919;28;20050;-65
2022/11/19 14:31:59;;;;;;;9.18;8.48;;;;;;;;;;10204101;28;20135;-65
2022/11/19 14:36:57;;;;;;;11.90;9.45;;;;;;;;;;10202740;28;20042;-65
2022/11/19 14:42:15;;;;;;;10.27;9.38;;;;;;;;;;10197893;28;20435;-66
2022/11/19 14:47:23;;;;;;;10.88;9.93;;;;;;;;;;10195641;28;20518;-65
2022/11/19 14:52:28;;;;;;;10.85;10.02;;;;;;;;;;10200907;28;20038;-65
2022/11/19 14:57:26;;;;;;;11.68;10.88;;;;;;;;;;10201900;28;20045;-65
2022/11/19 15:02:28;;;;;;;12.80;11.90;;;;;;;;;;10204038;28;20060;-65
2022/11/19 15:07:47;;;;;;;14.27;12.93;;;;;;;;;;10200037;28;20049;-65
2022/11/19 15:13:00;;;;;;;14.13;12.93;;;;;;;;;;10194758;28;20034;-65
2022/11/19 15:17:59;;;;;;;15.48;14.27;;;;;;;;;;10195333;28;20050;-65
2022/11/19 15:23:20;;;;;;;17.00;15.30;;;;;;;;;;10196555;28;20074;-65
2022/11/19 15:28:19;;;;;;;16.63;15.23;;;;;;;;;;10192030;28;20041;-65
2022/11/19 15:33:25;;;;;;;15.57;14.57;;;;;;;;;;10192006;28;20042;-66
2022/11/19 15:38:22;;;;;;;16.30;15.20;;;;;;;;;;10195344;28;20577;-65
2022/11/19 15:43:18;;;;;;;16.83;15.52;;;;;;;;;;10194716;28;20054;-65
2022/11/19 15:48:18;;;;;;;20.85;19.15;;;;;;;;;;10194992;28;20056;-66
2022/11/19 15:53:19;;;;;;;19.05;17.65;;;;;;;;;;10196202;28;20044;-66
2022/11/19 15:58:17;;;;;;;19.80;18.42;;;;;;;;;;10189574;28;20064;-65
2022/11/19 16:03:13;;;;;;;23.02;20.95;;;;;;;;;;10195297;28;20511;-65
2022/11/19 16:08:12;;;;;;;22.85;21.15;;;;;;;;;;10190039;28;20060;-65
2022/11/19 16:18:52;;;;;;;;;;;;;;;;;;10189465;28;20046;-65
2022/11/19 16:29:04;;;;;;;27.75;25.50;;;;;;;;;;10193098;28;20041;-65
2022/11/19 16:34:00;;;;;;;25.90;23.88;;;;;;;;;;10194148;28;20038;-65
2022/11/19 16:38:57;;;;;;;25.88;24.08;;;;;;;;;;10188847;28;20038;-65
2022/11/19 16:43:53;;;;;;;27.08;25.17;;;;;;;;;;10192948;28;20045;-65
2022/11/19 16:48:54;;;;;;;26.25;24.17;;;;;;;;;;10193813;28;20541;-66
2022/11/19 16:53:51;;;;;;;25.23;23.20;;;;;;;;;;10193002;28;20463;-65
2022/11/19 16:58:48;;;;;;;24.80;23.10;;;;;;;;;;10192407;28;20041;-65
2022/11/19 17:03:45;;;;;;;24.70;22.77;;;;;;;;;;10187970;28;20041;-65
2022/11/19 17:08:52;;;;;;;28.25;26.05;;;;;;;;;;10186550;28;20056;-65
2022/11/19 17:13:48;;;;;;;31.58;28.73;;;;;;;;;;10192854;28;20695;-65
2022/11/19 17:18:45;;;;;;;31.88;29.30;;;;;;;;;;10191660;28;20503;-65
2022/11/19 17:23:48;;;;;;;30.02;27.92;;;;;;;;;;10192942;28;20049;-65
2022/11/19 17:28:47;;;;;;;31.40;28.90;;;;;;;;;;10191313;28;20049;-66
2022/11/19 17:33:50;;;;;;;35.92;33.15;;;;;;;;;;10191951;28;20041;-65
2022/11/19 17:38:47;;;;;;;36.85;34.15;;;;;;;;;;10190975;28;20061;-65
2022/11/19 17:48:58;;;;;;;42.20;38.95;;;;;;;;;;10190571;28;20514;-65
2022/11/19 17:53:56;;;;;;;39.08;36.22;;;;;;;;;;10191828;28;20042;-65
2022/11/19 17:58:53;;;;;;;39.35;36.75;;;;;;;;;;10184751;28;20411;-65
2022/11/19 18:03:49;;;;;;;38.40;35.47;;;;;;;;;;10188062;28;20484;-65
2022/11/19 18:08:46;;;;;;;38.92;35.92;;;;;;;;;;10190547;28;20041;-65
2022/11/19 18:13:43;;;;;;;39.03;35.25;;;;;;;;;;10190304;28;20042;-65
2022/11/19 18:18:39;;;;;;;40.47;36.97;;;;;;;;;;10190966;28;20050;-66
2022/11/19 18:23:35;;;;;;;33.92;31.38;;;;;;;;;;10189432;28;20443;-65
2022/11/19 18:28:32;;;;;;;33.40;31.00;;;;;;;;;;10190640;28;20050;-65
2022/11/19 18:33:28;;;;;;;33.63;31.17;;;;;;;;;;10190548;28;20038;-65
2022/11/19 18:38:24;;;;;;;32.85;30.00;;;;;;;;;;10186364;28;20539;-65
2022/11/19 18:48:36;;;;;;;31.15;28.70;;;;;;;;;;10191327;28;20049;-65
2022/11/19 18:53:32;;;;;;;27.45;25.55;;;;;;;;;;10197394;28;20054;-65
2022/11/19 18:58:29;;;;;;;27.88;25.88;;;;;;;;;;10195506;28;20041;-65
2022/11/19 19:03:25;;;;;;;26.23;24.23;;;;;;;;;;10197386;28;20048;-65
2022/11/19 19:08:21;;;;;;;25.50;23.42;;;;;;;;;;10195326;28;20044;-65
2022/11/19 19:13:18;;;;;;;24.10;21.77;;;;;;;;;;10197342;28;20046;-66
2022/11/19 19:18:14;;;;;;;23.48;21.67;;;;;;;;;;10196035;28;20049;-65
2022/11/19 19:23:10;;;;;;;23.23;21.52;;;;;;;;;;10196888;28;20060;-65
2022/11/19 19:28:06;;;;;;;24.88;22.90;;;;;;;;;;10195240;28;20643;-65
2022/11/19 19:33:03;;;;;;;23.58;21.48;;;;;;;;;;10197080;28;20566;-65
2022/11/19 19:37:59;;;;;;;23.33;21.25;;;;;;;;;;10192944;28;20034;-65
2022/11/19 19:42:55;;;;;;;25.15;22.75;;;;;;;;;;10190824;28;20045;-65
2022/11/19 19:47:52;;;;;;;26.75;23.45;;;;;;;;;;10196434;28;20160;-65
2022/11/19 19:52:48;;;;;;;24.80;22.88;;;;;;;;;;10195333;28;20050;-65
2022/11/19 19:57:44;;;;;;;26.20;24.13;;;;;;;;;;10192710;28;20041;-65
2022/11/19 20:02:40;;;;;;;26.10;24.10;;;;;;;;;;10193574;28;20053;-65
2022/11/19 20:07:36;;;;;;;25.80;23.80;;;;;;;;;;10192567;28;20148;-65
2022/11/19 20:13:26;;;;;;;25.40;23.20;;;;;;;;;;10193393;28;20072;-65
2022/11/19 20:17:58;;;;;;;23.60;21.60;;;;;;;;;;10191657;28;20564;-65
2022/11/19 20:22:54;;;;;;;25.02;23.00;;;;;;;;;;10189951;28;20073;-65
2022/11/19 20:27:51;;;;;;;22.83;21.13;;;;;;;;;;10190199;28;20054;-65
2022/11/19 20:32:47;;;;;;;22.48;20.35;;;;;;;;;;10193702;28;20128;-65
2022/11/19 20:37:44;;;;;;;27.75;24.33;;;;;;;;;;10193540;28;20057;-65
2022/11/19 20:47:55;;;;;;;22.42;20.58;;;;;;;;;;10192960;28;20400;-65
2022/11/19 20:52:51;;;;;;;21.88;19.88;;;;;;;;;;10192918;28;20044;-65
2022/11/19 20:57:47;;;;;;;20.38;18.73;;;;;;;;;;10189947;28;20420;-65
2022/11/19 21:02:44;;;;;;;22.92;21.23;;;;;;;;;;10192934;28;20555;-65
2022/11/19 21:07:40;;;;;;;21.42;19.83;;;;;;;;;;10190343;28;20073;-65
2022/11/19 21:12:59;;;;;;;22.60;20.55;;;;;;;;;;10191657;28;20042;-65
2022/11/19 21:17:53;;;;;;;21.27;19.67;;;;;;;;;;10190870;28;20065;-65
2022/11/19 21:22:51;;;;;;;19.05;17.55;;;;;;;;;;10189408;28;20116;-65
2022/11/19 21:27:47;;;;;;;19.00;17.50;;;;;;;;;;10191771;28;20695;-65
2022/11/19 21:32:44;;;;;;;20.25;18.52;;;;;;;;;;10192779;28;20053;-65
2022/11/19 21:37:40;;;;;;;19.33;17.92;;;;;;;;;;10191287;28;20415;-65
2022/11/19 21:42:36;;;;;;;21.42;19.45;;;;;;;;;;10192265;28;20527;-65
2022/11/19 21:47:32;;;;;;;19.10;17.30;;;;;;;;;;10184090;28;20046;-65
2022/11/19 21:52:29;;;;;;;18.40;16.92;;;;;;;;;;10191723;28;20551;-65
2022/11/19 21:57:26;;;;;;;16.50;15.20;;;;;;;;;;10190872;28;20041;-65
2022/11/19 22:02:23;;;;;;;15.80;14.70;;;;;;;;;;10191084;28;20049;-65
2022/11/19 22:07:19;;;;;;;15.45;14.25;;;;;;;;;;10190068;28;20126;-65
2022/11/19 22:12:15;;;;;;;17.13;15.52;;;;;;;;;;10187783;28;20121;-65
2022/11/19 22:17:11;;;;;;;16.25;14.93;;;;;;;;;;10190993;28;20053;-65
2022/11/19 22:22:08;;;;;;;16.67;15.27;;;;;;;;;;10192523;28;20045;-65
2022/11/19 22:27:04;;;;;;;15.68;14.35;;;;;;;;;;10199491;28;20053;-65
2022/11/19 22:32:00;;;;;;;15.65;14.25;;;;;;;;;;10195818;28;20049;-65
2022/11/19 22:36:56;;;;;;;15.75;14.55;;;;;;;;;;10198053;28;20046;-65
2022/11/19 22:41:53;;;;;;;15.88;14.57;;;;;;;;;;10191652;28;20038;-65
2022/11/19 22:46:49;;;;;;;15.65;14.30;;;;;;;;;;10197969;28;20049;-65
2022/11/19 22:51:45;;;;;;;14.75;13.55;;;;;;;;;;10198260;28;20056;-65
2022/11/19 22:56:41;;;;;;;14.85;13.45;;;;;;;;;;10197657;28;20126;-65
2022/11/19 23:01:38;;;;;;;15.63;14.27;;;;;;;;;;10197201;28;20117;-65
2022/11/19 23:06:35;;;;;;;13.65;12.65;;;;;;;;;;10196908;28;20500;-64
2022/11/19 23:16:46;;;;;;;14.68;13.38;;;;;;;;;;10195801;28;20133;-65
2022/11/19 23:21:43;;;;;;;14.07;12.82;;;;;;;;;;10197205;28;20054;-65
2022/11/19 23:26:39;;;;;;;14.65;13.25;;;;;;;;;;10196973;28;20116;-65
2022/11/19 23:31:37;;;;;;;14.55;13.50;;;;;;;;;;10192637;28;20132;-65
2022/11/19 23:36:34;;;;;;;15.27;14.18;;;;;;;;;;10196856;28;20045;-65
2022/11/19 23:41:32;;;;;;;14.55;13.45;;;;;;;;;;10190709;28;20420;-65
2022/11/19 23:46:29;;;;;;;13.25;12.20;;;;;;;;;;10196251;28;20076;-65
2022/11/19 23:51:26;;;;;;;14.32;13.20;;;;;;;;;;10196135;28;20419;-65
2022/11/19 23:56:23;;;;;;;14.98;13.48;;;;;;;;;;10196020;28;20045;-65
